Time;durP1;ratioP1;P1;durP2;ratioP2;P2;SDS_P1;SDS_P2;PMS_P1;PMS_P2;Temp;Humidity;BMP_temperature;BMP_pressure;BME280_temperature;BME280_humidity;BME280_pressure;Samples;Min_cycle;Max_cycle;Signal;HPM_P1;HPM_P2
2022/02/09 00:07:29;;;;;;;16.60;7.40;;;0.00;99.90;;;;;;5056307;28;20033;-73
2022/02/09 00:09:55;;;;;;;21.52;7.43;;;0.00;99.90;;;;;;5056749;28;20068;-72
2022/02/09 00:12:27;;;;;;;15.00;6.78;;;-0.30;99.90;;;;;;5056139;28;20483;-72
2022/02/09 01:03:04;;;;;;;11.55;6.45;;;-0.40;99.90;;;;;;5055558;28;20094;-72
2022/02/09 01:38:53;;;;;;;11.07;4.93;;;-1.10;99.90;;;;;;5054924;28;20155;-72
2022/02/09 01:56:58;;;;;;;8.13;4.05;;;-0.80;99.90;;;;;;5054364;28;20035;-71
2022/02/09 01:59:25;;;;;;;8.23;4.82;;;-0.60;99.90;;;;;;5055117;28;20039;-72
2022/02/09 02:01:51;;;;;;;10.07;5.10;;;-0.80;99.90;;;;;;5054786;28;20048;-72
2022/02/09 02:04:24;;;;;;;9.13;4.95;;;;;;;;;;5054897;28;20082;-71
2022/02/09 02:06:52;;;;;;;9.65;4.82;;;-1.10;99.90;;;;;;5054106;28;20061;-72
2022/02/09 02:09:18;;;;;;;10.65;4.60;;;-0.80;99.90;;;;;;5054581;28;20103;-71
2022/02/09 02:16:46;;;;;;;9.02;4.88;;;-1.00;99.90;;;;;;5054646;28;20037;-72
2022/02/09 02:19:30;;;;;;;13.25;4.57;;;-0.70;99.90;;;;;;5054510;28;20040;-72
2022/02/09 02:22:15;;;;;;;12.40;5.45;;;-0.60;99.90;;;;;;5054350;28;20055;-72
2022/02/09 02:30:41;;;;;;;14.15;4.82;;;-0.90;99.90;;;;;;5054458;28;20069;-72
2022/02/09 02:36:36;;;;;;;9.38;4.63;;;-1.00;99.90;;;;;;5053997;28;20033;-72
2022/02/09 02:38:58;;;;;;;10.00;4.53;;;-0.80;99.90;;;;;;5046099;28;20041;-72
2022/02/09 02:58:06;;;;;;;11.70;4.38;;;-1.10;99.90;;;;;;5053671;28;20392;-71
2022/02/09 03:08:46;;;;;;;12.07;4.57;;;-1.20;99.90;;;;;;5053512;28;20094;-72
2022/02/09 03:11:37;;;;;;;;;;;;;;;;;;5053867;28;20131;-72
2022/02/09 03:14:12;;;;;;;9.80;4.18;;;-1.10;99.90;;;;;;5054315;28;19915;-72
2022/02/09 03:16:57;;;;;;;11.63;4.47;;;;;;;;;;5053135;28;20033;-72
2022/02/09 03:22:23;;;;;;;11.23;3.90;;;-1.10;99.90;;;;;;5055970;28;20541;-71
2022/02/09 03:54:55;;;;;;;10.95;4.40;;;-1.10;99.90;;;;;;5056590;28;20407;-72
2022/02/09 03:57:11;;;;;;;8.18;4.05;;;-1.40;99.90;;;;;;5045434;28;20037;-72
2022/02/09 03:59:36;;;;;;;9.50;3.60;;;-1.50;99.90;;;;;;5056118;28;20033;-72
2022/02/09 04:02:03;;;;;;;7.90;3.95;;;-1.30;99.90;;;;;;5056628;28;20037;-72
2022/02/09 04:04:30;;;;;;;8.15;4.25;;;-1.30;99.90;;;;;;5056629;28;20040;-72
2022/02/09 04:06:56;;;;;;;9.32;4.47;;;-1.20;99.90;;;;;;5056555;28;20480;-72
2022/02/09 04:09:27;;;;;;;10.20;4.15;;;-1.40;99.90;;;;;;5056621;28;20071;-71
2022/02/09 04:12:15;;;;;;;7.68;3.38;;;-1.00;99.90;;;;;;5056226;28;20496;-72
2022/02/09 04:14:52;;;;;;;7.45;3.83;;;-1.40;99.90;;;;;;5056456;28;20041;-71
2022/02/09 04:36:32;;;;;;;5.45;3.08;;;-1.20;99.90;;;;;;5055852;28;20449;-72
2022/02/09 04:39:10;;;;;;;6.13;3.13;;;;;;;;;;5055754;28;20127;-72
2022/02/09 04:52:27;;;;;;;7.30;3.08;;;-0.90;99.90;;;;;;5054933;28;20130;-72
2022/02/09 04:57:48;;;;;;;8.18;3.10;;;-0.70;99.90;;;;;;5055247;28;20048;-72
2022/02/09 05:03:32;;;;;;;8.73;3.33;;;;;;;;;;5055939;28;20067;-72
2022/02/09 05:27:21;;;;;;;7.78;2.55;;;;;;;;;;5049153;28;20043;-72
2022/02/09 05:29:48;;;;;;;7.07;2.53;;;;;;;;;;5054766;28;20033;-71
2022/02/09 05:32:14;;;;;;;5.72;3.17;;;-0.30;99.90;;;;;;5054644;28;20181;-73
2022/02/09 05:34:40;;;;;;;5.57;2.83;;;-0.20;99.90;;;;;;5055234;28;20033;-70
2022/02/09 05:37:06;;;;;;;6.20;2.95;;;-0.30;99.90;;;;;;5055100;28;20047;-70
2022/02/09 05:39:32;;;;;;;6.03;3.13;;;0.00;99.90;;;;;;5054760;28;20048;-70
2022/02/09 05:41:58;;;;;;;9.43;3.25;;;-0.20;99.90;;;;;;5055074;28;20561;-70
2022/02/09 05:44:24;;;;;;;8.38;3.10;;;-0.20;99.90;;;;;;5055129;28;20075;-70
2022/02/09 05:50:00;;;;;;;8.95;3.40;;;0.10;99.90;;;;;;5044127;28;20040;-70
2022/02/09 05:52:43;;;;;;;8.85;4.43;;;;;;;;;;5055413;28;20083;-71
2022/02/09 05:57:51;;;;;;;7.40;4.03;;;0.20;99.90;;;;;;5054893;28;20043;-70
2022/02/09 06:00:17;;;;;;;9.43;4.00;;;;;;;;;;5054511;28;20384;-70
2022/02/09 06:02:47;;;;;;;9.27;3.88;;;0.20;99.90;;;;;;5054809;28;20045;-70
2022/02/09 06:05:14;;;;;;;10.73;4.38;;;-0.10;99.90;;;;;;5054382;28;20365;-70
2022/02/09 06:07:41;;;;;;;7.63;4.55;;;-0.10;99.90;;;;;;5054916;28;20072;-70
2022/02/09 06:10:18;;;;;;;8.55;4.30;;;-0.10;99.90;;;;;;5054446;28;20033;-70
2022/02/09 06:12:53;;;;;;;9.15;3.67;;;;;;;;;;5054078;28;20136;-70
2022/02/09 06:20:32;;;;;;;9.45;4.57;;;0.10;99.90;;;;;;5053982;28;20039;-70
2022/02/09 06:22:58;;;;;;;11.65;3.85;;;0.20;99.90;;;;;;5054609;28;20036;-70
2022/02/09 06:25:23;;;;;;;7.82;3.95;;;-0.20;99.90;;;;;;5054587;28;20051;-70
2022/02/09 06:27:50;;;;;;;8.48;3.97;;;-0.20;99.90;;;;;;5054588;28;20119;-70
2022/02/09 06:30:17;;;;;;;9.30;3.45;;;-0.20;99.90;;;;;;5054462;28;20530;-70
2022/02/09 06:32:43;;;;;;;10.20;4.30;;;-0.10;99.90;;;;;;5054052;28;20049;-70
2022/02/09 06:35:09;;;;;;;8.70;4.05;;;-0.10;99.90;;;;;;5053808;28;20384;-70
2022/02/09 06:37:42;;;;;;;15.68;3.67;;;-0.30;99.90;;;;;;5054203;28;20093;-70
2022/02/09 06:40:10;;;;;;;13.52;3.88;;;-0.30;99.90;;;;;;5054799;28;20036;-70
2022/02/09 06:42:38;;;;;;;8.55;3.53;;;0.00;99.90;;;;;;5054114;28;20114;-70
2022/02/09 06:45:15;;;;;;;7.47;2.95;;;0.20;99.90;;;;;;5054132;28;20037;-70
2022/02/09 06:47:41;;;;;;;9.20;3.40;;;-0.20;99.90;;;;;;5053791;28;20045;-70
2022/02/09 06:50:12;;;;;;;6.82;3.67;;;-0.30;99.90;;;;;;5053598;28;20044;-70
2022/02/09 06:52:42;;;;;;;6.50;3.63;;;-0.10;99.90;;;;;;5054033;28;20488;-70
2022/02/09 07:00:21;;;;;;;11.95;5.00;;;-0.40;99.90;;;;;;5057652;28;20408;-71
2022/02/09 07:02:47;;;;;;;12.57;4.95;;;-0.60;99.90;;;;;;5057681;28;20040;-70
2022/02/09 07:05:15;;;;;;;6.88;3.55;;;-0.40;99.90;;;;;;5057755;28;20067;-70
2022/02/09 07:07:42;;;;;;;7.20;3.35;;;-0.50;99.90;;;;;;5057691;28;20048;-70
2022/02/09 07:10:09;;;;;;;7.97;3.80;;;-0.40;99.90;;;;;;5057823;28;20488;-70
2022/02/09 07:12:35;;;;;;;7.35;3.88;;;-0.50;99.90;;;;;;5057406;28;20206;-70
2022/02/09 07:15:01;;;;;;;9.13;4.18;;;;;;;;;;5057262;28;20068;-70
2022/02/09 07:17:28;;;;;;;8.70;5.32;;;-0.20;99.90;;;;;;5057234;28;20104;-70
2022/02/09 07:19:58;;;;;;;12.52;7.32;;;0.20;99.90;;;;;;5057462;28;20445;-70
2022/02/09 07:22:26;;;;;;;13.55;5.88;;;0.50;99.90;;;;;;5057287;28;20205;-70
2022/02/09 07:25:07;;;;;;;11.93;5.10;;;0.80;99.90;;;;;;5057087;28;20044;-70
2022/02/09 07:27:52;;;;;;;;;;;0.90;99.90;;;;;;5057798;28;20041;-70
2022/02/09 07:30:23;;;;;;;11.88;5.82;;;0.80;99.90;;;;;;5056599;28;19909;-70
2022/02/09 07:32:58;;;;;;;9.57;5.43;;;1.00;99.90;;;;;;5057435;28;20052;-71
2022/02/09 07:35:24;;;;;;;12.27;6.05;;;0.80;99.90;;;;;;5057349;28;20182;-71
2022/02/09 07:37:50;;;;;;;18.20;8.00;;;1.20;99.90;;;;;;5056860;28;20064;-71
2022/02/09 07:40:18;;;;;;;13.95;7.07;;;1.10;99.90;;;;;;5057028;28;20068;-71
2022/02/09 07:42:49;;;;;;;16.65;8.48;;;1.10;99.90;;;;;;5045648;28;20033;-71
2022/02/09 07:53:05;;;;;;;21.15;11.20;;;1.70;99.90;;;;;;5036976;28;20087;-71
2022/02/09 07:55:31;;;;;;;31.77;14.63;;;1.50;99.90;;;;;;5036757;28;20038;-71
2022/02/09 07:57:58;;;;;;;23.00;12.38;;;1.50;99.90;;;;;;5036992;28;20091;-71
2022/02/09 08:00:24;;;;;;;17.88;10.50;;;1.70;99.90;;;;;;5036230;28;20033;-71
2022/02/09 08:02:52;;;;;;;22.17;12.73;;;2.00;99.90;;;;;;5036915;28;20042;-71
2022/02/09 08:05:22;;;;;;;23.02;12.45;;;2.10;99.90;;;;;;5038963;28;20043;-71
2022/02/09 08:07:48;;;;;;;15.95;9.43;;;1.70;99.90;;;;;;5036017;28;20033;-71
2022/02/09 08:10:30;;;;;;;13.70;6.45;;;2.10;99.90;;;;;;5036651;28;20038;-71
2022/02/09 08:24:07;;;;;;;13.95;8.45;;;2.30;99.90;;;;;;5036338;28;20040;-70
2022/02/09 08:34:11;;;;;;;19.90;11.10;;;2.90;99.90;;;;;;5035439;28;20050;-71
2022/02/09 08:36:37;;;;;;;17.92;11.20;;;3.30;99.90;;;;;;5034710;28;20034;-71
2022/02/09 08:39:04;;;;;;;9.90;6.30;;;3.10;99.90;;;;;;5047005;28;20094;-71
2022/02/09 08:41:30;;;;;;;14.82;8.40;;;3.20;99.90;;;;;;5054989;28;20061;-71
2022/02/09 08:43:56;;;;;;;15.68;8.90;;;3.20;99.90;;;;;;5053560;28;20067;-74
2022/02/09 08:46:22;;;;;;;20.33;8.80;;;3.10;99.90;;;;;;5044520;28;20037;-71
2022/02/09 08:48:48;;;;;;;18.92;10.15;;;3.20;99.90;;;;;;5040806;28;20131;-71
2022/02/09 08:51:14;;;;;;;18.42;9.57;;;3.20;99.90;;;;;;5042667;28;20116;-72
2022/02/09 08:53:41;;;;;;;25.98;10.82;;;3.30;99.90;;;;;;5042270;28;20045;-71
2022/02/09 08:56:10;;;;;;;22.42;13.43;;;3.00;99.90;;;;;;5043898;28;20033;-72
2022/02/09 08:58:36;;;;;;;24.50;14.02;;;3.10;99.90;;;;;;5043760;28;20041;-71
2022/02/09 09:01:11;;;;;;;24.83;14.25;;;3.20;99.90;;;;;;5044808;28;20044;-71
2022/02/09 09:03:54;;;;;;;25.20;12.77;;;3.50;99.90;;;;;;5043864;28;20104;-71
2022/02/09 09:06:24;;;;;;;17.77;9.50;;;3.80;99.90;;;;;;5044400;28;20500;-72
2022/02/09 10:03:09;;;;;;;13.73;5.03;;;6.60;98.60;;;;;;5033556;28;20091;-71
2022/02/09 10:14:09;;;;;;;10.38;4.40;;;6.90;97.20;;;;;;5034601;28;20042;-71
2022/02/09 10:33:57;;;;;;;11.38;4.40;;;7.60;96.00;;;;;;5038495;28;20089;-71
2022/02/09 10:36:22;;;;;;;13.30;4.75;;;7.50;95.90;;;;;;5038941;28;20033;-71
2022/02/09 10:39:02;;;;;;;12.43;4.60;;;7.40;97.10;;;;;;5038394;28;20575;-71
2022/02/09 10:41:34;;;;;;;11.88;4.40;;;7.60;96.30;;;;;;5037767;28;20042;-71
2022/02/09 10:44:14;;;;;;;13.65;4.70;;;7.70;95.30;;;;;;5037658;28;20053;-71
2022/02/09 10:46:55;;;;;;;8.25;4.05;;;7.60;96.60;;;;;;5037920;28;20080;-71
2022/02/09 10:49:25;;;;;;;12.23;4.10;;;7.80;95.80;;;;;;5020424;28;20428;-71
2022/02/09 10:54:25;;;;;;;13.70;4.68;;;8.00;91.70;;;;;;5038396;28;20049;-71
2022/02/09 10:56:55;;;;;;;12.98;4.45;;;8.40;90.20;;;;;;5037912;28;20030;-72
2022/02/09 10:59:24;;;;;;;15.50;4.23;;;8.20;90.80;;;;;;5038649;28;20073;-71
2022/02/09 11:01:51;;;;;;;10.68;3.45;;;8.30;89.90;;;;;;5037605;28;20073;-71
2022/02/09 11:04:17;;;;;;;10.65;3.90;;;8.10;89.30;;;;;;5037454;28;20120;-71
2022/02/09 11:06:45;;;;;;;18.80;4.20;;;8.30;91.70;;;;;;5038252;28;20033;-71
2022/02/09 11:09:16;;;;;;;12.77;3.60;;;8.20;80.50;;;;;;5038150;28;20063;-71
2022/02/09 11:11:43;;;;;;;14.52;4.03;;;8.30;78.90;;;;;;5037740;28;20077;-71
2022/02/09 11:14:23;;;;;;;9.57;3.65;;;8.20;80.40;;;;;;5037703;28;20119;-71
2022/02/09 11:16:57;;;;;;;13.77;4.40;;;8.30;81.60;;;;;;5037144;28;20041;-71
2022/02/09 11:19:45;;;;;;;8.15;3.55;;;8.10;83.20;;;;;;5037306;28;20041;-72
2022/02/09 11:22:21;;;;;;;11.00;3.72;;;8.20;83.80;;;;;;5037522;28;20041;-71
2022/02/09 11:24:49;;;;;;;12.82;3.30;;;;;;;;;;5037878;28;20041;-72
2022/02/09 11:27:29;;;;;;;14.88;3.50;;;8.30;99.80;;;;;;5037834;28;20099;-71
2022/02/09 11:30:15;;;;;;;12.70;4.25;;;8.90;94.30;;;;;;5037521;28;20063;-71
2022/02/09 11:33:21;;;;;;;9.52;2.80;;;9.00;91.10;;;;;;5036726;28;20053;-71
2022/02/09 11:38:59;;;;;;;9.25;3.05;;;9.30;84.10;;;;;;5036988;28;20033;-71
2022/02/09 11:41:51;;;;;;;8.70;3.38;;;9.40;88.60;;;;;;5037005;28;20041;-72
2022/02/09 11:45:18;;;;;;;7.25;3.10;;;9.40;87.60;;;;;;5036540;28;20542;-72
2022/02/09 11:58:46;;;;;;;13.65;3.10;;;9.80;80.80;;;;;;5036473;28;20064;-72
2022/02/09 12:10:13;;;;;;;13.82;3.30;;;9.50;90.40;;;;;;5058234;28;20094;-74
2022/02/09 12:12:41;;;;;;;13.20;3.17;;;9.30;85.00;;;;;;5067219;28;20036;-73
2022/02/09 12:23:12;;;;;;;9.02;2.88;;;9.80;81.70;;;;;;5046205;28;20033;-74
2022/02/09 12:25:42;;;;;;;7.95;2.90;;;9.70;83.40;;;;;;5055454;28;20037;-74
2022/02/09 12:28:34;;;;;;;9.93;3.50;;;9.70;87.20;;;;;;5053542;28;20041;-74
2022/02/09 12:31:15;;;;;;;9.25;3.22;;;9.60;90.60;;;;;;5050583;28;20542;-73
2022/02/09 12:33:47;;;;;;;;;;;9.30;95.90;;;;;;5044191;28;20504;-74
2022/02/09 12:36:19;;;;;;;16.30;3.22;;;9.00;91.80;;;;;;5047192;28;19944;-74
2022/02/09 12:38:47;;;;;;;13.88;3.72;;;8.80;96.80;;;;;;5034618;28;20038;-73
2022/02/09 12:41:23;;;;;;;10.60;3.00;;;8.70;99.90;;;;;;5050566;28;20064;-74
2022/02/09 12:43:52;;;;;;;12.77;3.40;;;8.60;99.90;;;;;;5035411;28;20037;-73
2022/02/09 12:46:20;;;;;;;10.30;3.42;;;8.60;99.90;;;;;;5047107;28;20476;-73
2022/02/09 12:48:46;;;;;;;11.75;3.20;;;8.50;99.90;;;;;;5055367;28;20041;-74
2022/02/09 12:51:21;;;;;;;9.07;3.80;;;8.60;99.90;;;;;;5055851;28;20560;-73
2022/02/09 12:53:48;;;;;;;11.98;4.78;;;8.70;99.90;;;;;;5054496;28;20052;-73
2022/02/09 12:56:18;;;;;;;10.63;4.45;;;;;;;;;;5053403;28;20119;-73
2022/02/09 12:58:56;;;;;;;13.35;4.13;;;9.50;99.90;;;;;;5049111;28;20080;-73
2022/02/09 13:01:22;;;;;;;18.58;3.75;;;10.00;99.90;;;;;;5055970;28;20090;-74
2022/02/09 13:03:48;;;;;;;10.50;3.35;;;10.30;99.90;;;;;;5044857;28;20040;-73
2022/02/09 13:06:14;;;;;;;15.20;3.78;;;10.30;98.30;;;;;;5073568;28;20054;-74
2022/02/09 13:08:40;;;;;;;11.93;3.88;;;10.40;99.20;;;;;;5050258;28;20051;-74
2022/02/09 13:13:54;;;;;;;13.40;3.63;;;10.40;95.90;;;;;;5032447;28;20515;-73
2022/02/09 14:19:13;;;;;;;7.95;3.40;;;10.90;75.50;;;;;;5053725;28;20091;-74
2022/02/09 14:47:20;;;;;;;11.73;3.88;;;11.00;89.60;;;;;;5033605;28;20555;-73
2022/02/09 14:52:13;;;;;;;9.00;4.00;;;10.70;91.60;;;;;;5044344;28;20041;-75
2022/02/09 14:55:09;;;;;;;9.52;3.90;;;10.80;88.20;;;;;;5032739;28;20054;-74
2022/02/09 14:57:30;;;;;;;11.60;3.60;;;10.90;92.50;;;;;;5041492;28;20041;-73
2022/02/09 15:07:37;;;;;;;9.60;3.50;;;10.30;95.20;;;;;;5049272;28;20120;-74
2022/02/09 15:10:28;;;;;;;9.45;3.40;;;10.30;96.80;;;;;;5031729;28;20044;-73
2022/02/09 15:13:44;;;;;;;10.95;3.55;;;10.30;96.30;;;;;;5053051;28;20045;-73
2022/02/09 15:15:58;;;;;;;15.60;4.22;;;10.20;96.30;;;;;;5044802;28;20393;-73
2022/02/09 15:23:23;;;;;;;13.35;4.10;;;10.40;99.20;;;;;;5055344;28;20029;-73
2022/02/09 15:25:49;;;;;;;10.48;3.70;;;10.30;99.90;;;;;;5056546;28;20128;-72
2022/02/09 15:28:15;;;;;;;10.43;4.10;;;10.30;99.60;;;;;;5042596;28;20120;-72
2022/02/09 15:30:52;;;;;;;14.88;4.38;;;;;;;;;;5047959;28;20124;-74
2022/02/09 15:33:23;;;;;;;8.23;3.70;;;9.90;99.40;;;;;;5036973;28;20084;-72
2022/02/09 15:35:55;;;;;;;9.80;4.32;;;10.00;83.80;;;;;;5037113;28;20038;-72
2022/02/09 15:38:25;;;;;;;11.07;5.07;;;9.70;85.00;;;;;;5036926;28;20064;-72
2022/02/09 15:41:15;;;;;;;12.20;4.55;;;9.60;85.40;;;;;;5037259;28;20038;-72
2022/02/09 15:44:04;;;;;;;11.60;4.85;;;9.40;88.10;;;;;;5042593;28;20064;-72
2022/02/09 16:05:45;;;;;;;8.95;4.65;;;9.60;88.60;;;;;;5050927;28;20163;-75
2022/02/09 16:11:00;;;;;;;8.45;4.43;;;9.40;90.20;;;;;;5056642;28;20037;-73
2022/02/09 16:24:26;;;;;;;10.68;4.43;;;9.10;94.60;;;;;;5056390;28;20036;-73
2022/02/09 16:46:14;;;;;;;9.75;4.30;;;9.20;93.80;;;;;;5055660;28;20031;-73
2022/02/09 16:48:38;;;;;;;14.02;4.60;;;9.10;94.50;;;;;;5055132;28;20049;-74
2022/02/09 16:51:12;;;;;;;10.80;4.78;;;9.00;96.80;;;;;;5055661;28;20545;-74
2022/02/09 16:53:47;;;;;;;12.75;4.80;;;9.00;99.90;;;;;;5055837;28;20190;-74
2022/02/09 16:56:39;;;;;;;10.27;4.18;;;9.00;95.10;;;;;;5055044;28;20037;-74
2022/02/09 17:18:44;;;;;;;12.13;4.22;;;8.50;99.90;;;;;;5034861;28;20412;-71
2022/02/09 17:21:11;;;;;;;7.93;3.88;;;8.40;99.90;;;;;;5034977;28;20050;-72
2022/02/09 17:23:37;;;;;;;12.57;4.45;;;8.50;99.90;;;;;;5034623;28;20543;-72
2022/02/09 17:26:04;;;;;;;10.68;4.07;;;8.50;99.90;;;;;;5034868;28;20041;-71
2022/02/09 17:28:30;;;;;;;8.50;4.25;;;8.60;99.90;;;;;;5037427;28;20037;-72
2022/02/09 17:31:07;;;;;;;12.55;3.90;;;8.50;99.90;;;;;;5044811;28;20127;-71
2022/02/09 18:02:35;;;;;;;13.20;4.55;;;8.30;99.90;;;;;;5042548;28;20047;-73
2022/02/09 18:05:10;;;;;;;11.77;4.80;;;8.20;99.90;;;;;;5043778;28;20037;-72
2022/02/09 18:07:38;;;;;;;10.85;4.50;;;8.30;99.90;;;;;;5043144;28;20045;-72
2022/02/09 18:10:18;;;;;;;11.93;4.72;;;8.20;99.90;;;;;;5043772;28;20048;-73
2022/02/09 18:13:01;;;;;;;12.10;4.87;;;8.30;99.90;;;;;;5044073;28;20512;-74
2022/02/09 18:15:56;;;;;;;13.82;5.82;;;8.40;99.90;;;;;;5044717;28;20033;-74
2022/02/09 18:25:15;;;;;;;12.15;5.25;;;8.30;99.90;;;;;;5043990;28;20515;-74
2022/02/09 18:28:18;;;;;;;40.85;24.38;;;8.30;99.90;;;;;;5044217;28;20044;-74
2022/02/09 18:32:13;;;;;;;9.15;5.43;;;8.30;99.90;;;;;;5044010;28;20132;-75
2022/02/09 18:37:42;;;;;;;22.42;8.30;;;8.20;99.90;;;;;;5043385;28;20033;-74
2022/02/09 18:45:32;;;;;;;13.30;7.70;;;8.10;99.90;;;;;;5053035;28;20037;-74
2022/02/09 19:03:57;;;;;;;15.45;6.90;;;8.10;99.90;;;;;;5056260;28;20068;-73
2022/02/09 19:27:28;;;;;;;16.05;7.90;;;8.00;99.90;;;;;;5056950;28;20408;-76
2022/02/09 19:48:23;;;;;;;14.60;6.00;;;7.80;99.90;;;;;;5057061;28;20033;-75
2022/02/09 19:51:10;;;;;;;18.08;7.95;;;7.80;99.90;;;;;;5057172;28;20100;-75
2022/02/09 19:56:10;;;;;;;14.45;8.27;;;7.80;99.90;;;;;;5054169;28;20029;-76
2022/02/09 20:01:21;;;;;;;16.50;9.10;;;7.70;99.90;;;;;;5055932;28;20128;-75
2022/02/09 20:03:47;;;;;;;11.30;7.13;;;7.90;99.90;;;;;;5053162;28;20116;-75
2022/02/09 20:06:13;;;;;;;16.45;7.35;;;7.80;99.90;;;;;;5054699;28;20099;-75
2022/02/09 20:08:40;;;;;;;16.48;7.90;;;7.70;99.90;;;;;;5055706;28;20065;-75
2022/02/09 20:11:14;;;;;;;15.50;8.23;;;7.70;99.90;;;;;;5055571;28;20040;-75
2022/02/09 20:13:41;;;;;;;17.63;8.40;;;7.60;99.90;;;;;;5055737;28;20091;-76
2022/02/09 20:16:07;;;;;;;13.85;8.20;;;7.60;99.90;;;;;;5056368;28;20035;-75
2022/02/09 20:18:33;;;;;;;17.42;9.88;;;7.60;99.90;;;;;;5055087;28;20041;-75
2022/02/09 20:21:00;;;;;;;17.48;9.80;;;7.60;99.90;;;;;;5056180;28;20063;-75
2022/02/09 20:23:30;;;;;;;17.63;9.50;;;7.60;99.90;;;;;;5055903;28;20187;-75
2022/02/09 20:25:58;;;;;;;16.13;8.30;;;7.50;99.90;;;;;;5055477;28;20052;-75
2022/02/09 20:28:24;;;;;;;14.93;8.35;;;7.50;99.90;;;;;;5053068;28;20052;-76
2022/02/09 20:31:04;;;;;;;16.02;8.13;;;7.50;99.90;;;;;;5054594;28;20033;-77
2022/02/09 20:33:36;;;;;;;13.80;7.95;;;7.60;99.90;;;;;;5042469;28;20130;-76
2022/02/09 20:36:05;;;;;;;13.48;8.13;;;7.50;99.90;;;;;;5053425;28;20040;-77
2022/02/09 20:38:32;;;;;;;14.90;8.75;;;7.50;99.90;;;;;;5055034;28;20033;-77
2022/02/09 20:41:03;;;;;;;12.60;7.80;;;7.50;99.90;;;;;;5054366;28;20032;-76
2022/02/09 20:43:31;;;;;;;14.43;6.68;;;7.40;99.90;;;;;;5054092;28;20048;-76
2022/02/09 20:46:02;;;;;;;13.30;6.47;;;7.40;99.90;;;;;;5054470;28;20037;-76
2022/02/09 20:48:28;;;;;;;14.20;7.60;;;7.30;99.90;;;;;;5052956;28;20048;-76
2022/02/09 20:50:57;;;;;;;15.15;8.55;;;7.20;99.90;;;;;;5047614;28;20037;-76
2022/02/09 20:53:24;;;;;;;16.52;8.02;;;7.20;99.90;;;;;;5034419;28;20124;-76
2022/02/09 20:55:51;;;;;;;14.45;8.52;;;7.20;99.90;;;;;;5051550;28;20047;-75
2022/02/09 20:58:18;;;;;;;18.52;9.48;;;7.10;99.90;;;;;;5053634;28;20044;-76
2022/02/09 21:00:58;;;;;;;18.38;9.00;;;7.10;99.90;;;;;;5052083;28;20480;-76
2022/02/09 21:03:41;;;;;;;16.77;9.43;;;7.10;99.90;;;;;;5052986;28;20072;-75
2022/02/09 21:16:39;;;;;;;16.38;9.27;;;7.00;99.90;;;;;;5034223;28;20037;-75
2022/02/09 21:19:29;;;;;;;25.85;13.15;;;6.80;99.90;;;;;;5039906;28;20049;-76
2022/02/09 22:07:04;;;;;;;19.08;8.00;;;6.00;99.90;;;;;;5033039;28;20036;-75
2022/02/09 22:20:25;;;;;;;19.92;8.43;;;6.10;99.90;;;;;;5033471;28;20171;-76
2022/02/09 22:23:05;;;;;;;12.35;7.60;;;6.00;99.90;;;;;;5033165;28;20042;-75
2022/02/09 22:28:22;;;;;;;20.15;8.98;;;6.20;99.90;;;;;;5040340;28;20040;-75
2022/02/09 22:50:08;;;;;;;16.83;8.18;;;6.50;99.90;;;;;;5040745;28;20503;-75
2022/02/09 22:55:19;;;;;;;11.93;6.53;;;6.50;99.90;;;;;;5041173;28;20174;-75
2022/02/09 22:57:53;;;;;;;14.40;6.57;;;6.60;99.90;;;;;;5040309;28;20070;-75
2022/02/09 23:00:44;;;;;;;13.23;8.20;;;6.50;99.90;;;;;;5041337;28;20047;-75
2022/02/09 23:03:12;;;;;;;16.38;8.10;;;6.50;99.90;;;;;;5040709;28;20044;-75
2022/02/09 23:11:36;;;;;;;14.60;6.53;;;6.40;99.90;;;;;;5040427;28;20040;-75
2022/02/09 23:16:58;;;;;;;14.38;7.00;;;6.40;99.90;;;;;;5040933;28;20114;-75
2022/02/09 23:20:10;;;;;;;13.52;6.82;;;6.50;99.90;;;;;;5040208;28;20041;-75
